Time;durP1;ratioP1;P1;durP2;ratioP2;P2;SDS_P1;SDS_P2;PMS_P1;PMS_P2;Temp;Humidity;BMP_temperature;BMP_pressure;BME280_temperature;BME280_humidity;BME280_pressure;Samples;Min_cycle;Max_cycle;Signal;HPM_P1;HPM_P2
2022/05/12 00:14:19;;;;;;;7.03;3.80;;;18.90;53.50;;;;;;4958218;29;20423;-83
2022/05/12 00:17:45;;;;;;;3.50;3.30;;;18.90;53.80;;;;;;4915848;29;20449;-84
2022/05/12 00:27:45;;;;;;;3.70;3.33;;;19.00;54.40;;;;;;5017153;28;20544;-84
2022/05/12 01:04:35;;;;;;;3.53;3.30;;;18.90;57.30;;;;;;4869293;29;21048;-85
2022/05/12 03:22:48;;;;;;;3.90;3.70;;;17.40;77.30;;;;;;5081793;28;20472;-85
2022/05/12 03:53:02;;;;;;;3.33;3.13;;;17.10;84.60;;;;;;5028928;28;20496;-85
2022/05/12 03:55:29;;;;;;;3.93;3.67;;;17.20;85.40;;;;;;5038272;28;20482;-85
2022/05/12 04:59:08;;;;;;;8.87;3.67;;;17.10;96.20;;;;;;5079722;28;20443;-86
2022/05/12 05:04:55;;;;;;;3.00;2.80;;;16.90;97.40;;;;;;5032180;28;20439;-85
2022/05/12 05:07:22;;;;;;;3.90;3.50;;;16.90;97.60;;;;;;5045711;28;20527;-86
2022/05/12 05:09:49;;;;;;;2.63;2.43;;;17.00;97.50;;;;;;5100357;28;21038;-87
2022/05/12 05:12:16;;;;;;;2.30;1.60;;;17.20;97.20;;;;;;5089192;28;20473;-86
2022/05/12 05:14:45;;;;;;;2.27;2.07;;;17.30;96.80;;;;;;5079387;28;20450;-86
2022/05/12 05:17:12;;;;;;;2.83;2.57;;;17.50;96.30;;;;;;5086405;28;20497;-86
2022/05/12 05:19:40;;;;;;;2.30;2.10;;;17.70;96.20;;;;;;5096996;28;20471;-86
2022/05/12 05:22:06;;;;;;;2.40;2.23;;;17.80;96.00;;;;;;5079278;28;20510;-86
2022/05/12 05:24:34;;;;;;;2.53;2.00;;;17.80;96.10;;;;;;5080095;28;20454;-86
2022/05/12 05:37:12;;;;;;;2.33;2.23;;;18.10;95.80;;;;;;5088871;28;20481;-85
2022/05/12 05:42:46;;;;;;;2.43;2.23;;;18.20;95.80;;;;;;5080126;28;20471;-84
2022/05/12 05:45:17;;;;;;;4.43;2.53;;;18.30;95.50;;;;;;5089487;28;20453;-84
2022/05/12 05:47:47;;;;;;;2.80;2.60;;;18.40;95.70;;;;;;5102828;28;20461;-85
2022/05/12 05:55:55;;;;;;;2.60;2.23;;;18.60;95.60;;;;;;5090445;28;20510;-85
2022/05/12 05:58:47;;;;;;;7.60;2.40;;;18.60;95.70;;;;;;5091990;28;20500;-84
2022/05/12 06:04:09;;;;;;;5.37;3.80;;;18.60;95.40;;;;;;5076265;28;20447;-84
2022/05/12 06:10:22;;;;;;;3.27;2.90;;;18.60;96.00;;;;;;5069820;28;20864;-84
2022/05/12 06:12:50;;;;;;;3.40;3.10;;;18.50;95.80;;;;;;5080524;28;20459;-84
2022/05/12 06:15:49;;;;;;;5.07;2.53;;;18.50;95.70;;;;;;5084718;28;21114;-84
2022/05/12 06:18:20;;;;;;;2.83;2.40;;;18.50;95.80;;;;;;5078956;28;20454;-84
2022/05/12 06:21:45;;;;;;;2.93;2.33;;;18.50;95.70;;;;;;5095244;28;20474;-85
2022/05/12 06:24:52;;;;;;;2.50;2.27;;;18.60;96.30;;;;;;5087506;28;21756;-84
2022/05/12 06:30:36;;;;;;;2.33;2.13;;;18.70;95.80;;;;;;5075976;28;20462;-85
2022/05/12 06:33:10;;;;;;;2.80;2.60;;;18.80;96.00;;;;;;5080292;28;20440;-85
2022/05/12 06:35:37;;;;;;;2.83;2.70;;;18.80;96.00;;;;;;5078976;28;20434;-83
2022/05/12 06:38:03;;;;;;;2.83;2.60;;;18.90;96.30;;;;;;5079688;28;20851;-82
2022/05/12 06:40:30;;;;;;;2.37;2.17;;;19.10;95.70;;;;;;5080148;28;20471;-83
2022/05/12 06:42:58;;;;;;;2.67;2.50;;;19.10;96.10;;;;;;5082016;28;20459;-83
2022/05/12 06:45:24;;;;;;;2.63;2.43;;;19.20;95.60;;;;;;5084214;28;20447;-83
2022/05/12 06:47:54;;;;;;;2.93;2.73;;;19.30;95.50;;;;;;5084259;28;20456;-83
2022/05/12 06:50:22;;;;;;;2.83;2.63;;;19.40;95.40;;;;;;5082849;28;20446;-84
2022/05/12 06:52:50;;;;;;;5.90;2.67;;;19.50;95.20;;;;;;5084632;28;20442;-85
2022/05/12 06:55:17;;;;;;;3.97;2.80;;;19.60;95.30;;;;;;5083600;28;20477;-84
2022/05/12 06:57:44;;;;;;;3.30;3.00;;;19.70;95.00;;;;;;5084488;28;20580;-83
2022/05/12 07:00:16;;;;;;;2.50;2.20;;;19.80;95.00;;;;;;5084070;28;20485;-83
2022/05/12 07:02:44;;;;;;;3.33;3.07;;;19.70;95.00;;;;;;5086498;28;20464;-84
2022/05/12 07:05:13;;;;;;;3.97;2.90;;;19.80;95.00;;;;;;5095263;28;20511;-84
2022/05/12 07:07:41;;;;;;;3.30;3.00;;;19.70;94.90;;;;;;5090494;28;20438;-83
2022/05/12 07:10:09;;;;;;;2.70;2.50;;;19.70;94.80;;;;;;5092797;28;20858;-83
2022/05/12 07:12:36;;;;;;;3.53;3.07;;;19.70;95.30;;;;;;5092325;28;20465;-83
2022/05/12 07:15:04;;;;;;;2.77;2.47;;;19.80;95.30;;;;;;5091903;28;20915;-83
2022/05/12 07:17:32;;;;;;;4.33;2.50;;;20.00;95.20;;;;;;5094946;28;20479;-84
2022/05/12 07:26:35;;;;;;;3.53;2.87;;;20.10;94.90;;;;;;5091441;28;20458;-84
2022/05/12 07:28:25;;;;;;;2.77;2.57;;;20.10;94.00;;;;;;5093446;28;20439;-83
2022/05/12 07:31:01;;;;;;;3.47;2.80;;;20.10;94.50;;;;;;5094354;28;20481;-84
2022/05/12 07:33:31;;;;;;;4.13;2.60;;;20.00;94.80;;;;;;5097266;28;20451;-83
2022/05/12 07:35:58;;;;;;;3.30;3.10;;;20.10;94.60;;;;;;5094894;28;20466;-83
2022/05/12 07:38:26;;;;;;;5.33;3.63;;;20.10;94.40;;;;;;5088840;28;20447;-84
2022/05/12 07:40:53;;;;;;;4.30;2.70;;;20.10;94.50;;;;;;5093125;28;20467;-84
2022/05/12 07:43:20;;;;;;;3.00;2.70;;;20.20;94.50;;;;;;5091516;28;20447;-85
2022/05/12 07:45:47;;;;;;;3.07;2.60;;;20.20;94.60;;;;;;5092663;28;20449;-84
2022/05/12 07:48:14;;;;;;;3.10;2.17;;;20.10;94.60;;;;;;5090672;28;20454;-85
2022/05/12 07:50:41;;;;;;;3.10;2.80;;;20.10;94.90;;;;;;5092705;28;20547;-86
2022/05/12 07:53:09;;;;;;;4.73;2.70;;;20.00;94.90;;;;;;5089007;28;20462;-86
2022/05/12 07:55:37;;;;;;;3.77;3.30;;;19.80;95.40;;;;;;5090717;28;20447;-85
2022/05/12 07:58:08;;;;;;;4.40;2.73;;;19.60;95.60;;;;;;5081890;28;20497;-85
2022/05/12 08:00:35;;;;;;;4.03;2.57;;;19.70;95.60;;;;;;5081605;28;20479;-85
2022/05/12 08:03:03;;;;;;;2.70;2.50;;;19.60;95.50;;;;;;5081971;28;20448;-85
2022/05/12 08:05:33;;;;;;;3.20;2.70;;;19.60;95.60;;;;;;5081547;28;20456;-84
2022/05/12 08:08:01;;;;;;;2.57;2.40;;;19.80;95.70;;;;;;5086069;28;20478;-82
2022/05/12 08:10:28;;;;;;;5.33;2.80;;;19.80;95.60;;;;;;5094911;28;20466;-78
2022/05/12 08:15:55;;;;;;;2.27;2.10;;;20.00;95.80;;;;;;5095716;28;20460;-85
2022/05/12 08:18:24;;;;;;;2.87;2.70;;;20.10;95.70;;;;;;5108245;28;20483;-86
2022/05/12 08:20:52;;;;;;;2.63;2.43;;;20.20;95.00;;;;;;5109441;28;20478;-86
2022/05/12 08:23:20;;;;;;;2.30;2.10;;;20.10;94.60;;;;;;5112852;28;20469;-86
2022/05/12 08:25:48;;;;;;;3.13;2.93;;;20.10;94.70;;;;;;5112541;28;20454;-85
2022/05/12 08:28:18;;;;;;;4.13;2.90;;;20.10;95.00;;;;;;5104607;28;20442;-85
2022/05/12 08:30:46;;;;;;;4.17;2.80;;;20.30;94.90;;;;;;5094216;28;20463;-84
2022/05/12 08:33:13;;;;;;;3.23;2.93;;;20.60;94.50;;;;;;5109836;28;20548;-86
2022/05/12 08:35:42;;;;;;;2.80;2.60;;;20.70;94.70;;;;;;5110061;28;20434;-86
2022/05/12 08:38:09;;;;;;;3.23;3.10;;;21.00;94.20;;;;;;5102265;28;20480;-86
2022/05/12 08:40:45;;;;;;;3.33;2.50;;;21.10;94.20;;;;;;5104641;28;20532;-86
2022/05/12 08:43:17;;;;;;;2.80;2.60;;;21.10;93.70;;;;;;5110055;28;20445;-85
2022/05/12 08:45:45;;;;;;;3.23;2.60;;;21.20;94.00;;;;;;5086979;28;20446;-84
2022/05/12 08:48:15;;;;;;;3.73;2.60;;;21.30;93.20;;;;;;5082922;28;20820;-84
2022/05/12 08:50:43;;;;;;;3.30;3.10;;;21.20;93.40;;;;;;5097668;28;20560;-85
2022/05/12 08:53:14;;;;;;;3.20;2.90;;;21.20;93.40;;;;;;5100145;28;20886;-85
2022/05/12 08:55:46;;;;;;;2.90;2.80;;;21.40;93.00;;;;;;5081716;28;20438;-82
2022/05/12 08:58:22;;;;;;;3.50;3.10;;;21.50;93.30;;;;;;5097984;28;20492;-84
2022/05/12 09:00:57;;;;;;;3.30;3.10;;;21.50;92.80;;;;;;5099627;28;20981;-84
2022/05/12 09:03:34;;;;;;;3.77;3.57;;;21.60;92.50;;;;;;5085691;28;20814;-83
2022/05/12 09:06:04;;;;;;;2.80;2.60;;;21.60;93.30;;;;;;5101404;28;20459;-84
2022/05/12 09:08:38;;;;;;;3.27;3.00;;;21.70;93.20;;;;;;5100736;28;20454;-84
2022/05/12 09:11:07;;;;;;;3.30;3.10;;;21.60;92.90;;;;;;5101576;28;20493;-84
2022/05/12 09:13:41;;;;;;;6.77;3.67;;;21.40;93.20;;;;;;5101678;28;20456;-84
2022/05/12 09:16:19;;;;;;;3.20;3.00;;;21.40;93.10;;;;;;5102454;28;20518;-84
2022/05/12 09:18:46;;;;;;;3.63;3.40;;;21.60;92.90;;;;;;5101396;28;20508;-84
2022/05/12 09:21:16;;;;;;;3.23;3.00;;;21.80;93.60;;;;;;5101102;28;20483;-84
2022/05/12 09:23:43;;;;;;;3.43;3.30;;;21.80;92.60;;;;;;5102685;28;20452;-84
2022/05/12 09:26:37;;;;;;;4.63;3.10;;;22.00;92.80;;;;;;5102197;28;20449;-84
2022/05/12 09:29:17;;;;;;;3.37;2.90;;;22.20;91.50;;;;;;5102933;28;20450;-84
2022/05/12 09:31:47;;;;;;;5.70;3.57;;;22.60;91.90;;;;;;5101419;28;20470;-84
2022/05/12 09:34:20;;;;;;;3.77;3.50;;;22.70;90.90;;;;;;5102347;28;21087;-83
2022/05/12 09:36:47;;;;;;;2.93;2.60;;;23.00;90.80;;;;;;5102640;28;20453;-85
2022/05/12 09:39:32;;;;;;;3.83;3.37;;;23.10;90.30;;;;;;5101709;28;20453;-84
2022/05/12 09:42:01;;;;;;;3.73;3.53;;;23.00;90.80;;;;;;5100507;28;20473;-84
2022/05/12 09:44:31;;;;;;;3.80;3.40;;;23.20;90.70;;;;;;5102289;28;20451;-84
2022/05/12 09:47:01;;;;;;;4.17;3.87;;;23.10;90.40;;;;;;5101904;28;20447;-84
2022/05/12 09:49:32;;;;;;;4.03;3.73;;;23.20;89.70;;;;;;5101267;28;20522;-83
2022/05/12 09:52:18;;;;;;;3.63;3.33;;;23.30;89.80;;;;;;5102323;28;20471;-84
2022/05/12 09:54:46;;;;;;;3.47;3.27;;;23.50;89.50;;;;;;5102484;28;20451;-84
2022/05/12 09:57:17;;;;;;;3.67;3.27;;;23.60;90.10;;;;;;5104783;28;20479;-84
2022/05/12 09:59:53;;;;;;;4.47;4.07;;;23.60;90.00;;;;;;5103182;28;20450;-84
2022/05/12 10:08:11;;;;;;;3.50;3.20;;;23.70;88.20;;;;;;5101364;28;20434;-85
2022/05/12 10:10:38;;;;;;;4.40;4.00;;;24.00;88.50;;;;;;5101257;28;20468;-84
2022/05/12 10:13:09;;;;;;;4.90;4.47;;;23.90;86.00;;;;;;5101654;28;20454;-83
2022/05/12 10:15:41;;;;;;;4.23;3.57;;;23.90;87.70;;;;;;5101881;28;20455;-84
2022/05/12 10:18:21;;;;;;;4.80;4.50;;;24.20;89.00;;;;;;5104930;28;20834;-84
2022/05/12 10:20:53;;;;;;;4.70;4.30;;;24.40;88.00;;;;;;5105542;28;20472;-84
2022/05/12 10:23:27;;;;;;;4.70;4.40;;;24.70;84.60;;;;;;5106183;28;20494;-84
2022/05/12 10:25:59;;;;;;;4.53;4.23;;;24.60;82.40;;;;;;5105894;28;20904;-84
2022/05/12 10:28:39;;;;;;;5.13;4.63;;;24.50;84.20;;;;;;5105538;28;20443;-84
2022/05/12 10:31:19;;;;;;;5.37;4.40;;;24.40;84.70;;;;;;5104324;28;20466;-85
2022/05/12 10:33:55;;;;;;;4.47;4.17;;;24.40;84.80;;;;;;5105349;28;20455;-84
2022/05/12 10:36:37;;;;;;;5.07;4.60;;;24.40;81.80;;;;;;5105352;28;20446;-85
2022/05/12 10:39:14;;;;;;;4.33;3.90;;;24.50;83.00;;;;;;5105027;28;20496;-84
2022/05/12 10:41:51;;;;;;;4.13;3.83;;;24.20;83.00;;;;;;5104308;28;20466;-84
2022/05/12 10:44:34;;;;;;;4.67;4.27;;;24.00;83.50;;;;;;5104527;28;20551;-84
2022/05/12 10:47:10;;;;;;;4.63;4.03;;;23.80;83.90;;;;;;5105074;28;20442;-84
2022/05/12 10:49:46;;;;;;;5.50;5.10;;;23.80;84.80;;;;;;5104938;28;20522;-84
2022/05/12 10:52:24;;;;;;;4.80;4.40;;;23.90;85.30;;;;;;5103944;28;20474;-85
2022/05/12 10:55:08;;;;;;;8.30;5.10;;;23.80;84.30;;;;;;5106324;28;20461;-85
2022/05/12 10:57:44;;;;;;;4.17;3.77;;;24.20;85.70;;;;;;5105968;28;20474;-85
2022/05/12 11:00:35;;;;;;;5.07;4.67;;;24.50;83.30;;;;;;5104414;28;20491;-85
2022/05/12 11:03:15;;;;;;;5.13;4.63;;;24.50;81.20;;;;;;5104794;28;20474;-85
2022/05/12 11:05:47;;;;;;;4.70;4.30;;;24.60;81.90;;;;;;5104681;28;20439;-85
2022/05/12 11:08:17;;;;;;;5.03;4.63;;;24.60;80.80;;;;;;5105002;28;20472;-85
2022/05/12 11:10:49;;;;;;;4.80;4.40;;;24.00;81.30;;;;;;5104013;28;20470;-84
2022/05/12 11:13:23;;;;;;;5.53;5.10;;;23.90;81.90;;;;;;5104375;28;20454;-84
2022/05/12 11:15:58;;;;;;;6.57;6.13;;;24.00;80.80;;;;;;5104563;28;20857;-84
2022/05/12 11:18:35;;;;;;;4.63;4.23;;;24.10;81.50;;;;;;5104910;28;20489;-84
2022/05/12 11:21:08;;;;;;;5.00;4.60;;;24.60;82.30;;;;;;5104211;28;20470;-83
2022/05/12 11:24:02;;;;;;;4.40;3.90;;;24.80;81.40;;;;;;5103651;28;20447;-83
2022/05/12 11:26:50;;;;;;;4.60;3.60;;;24.80;81.20;;;;;;5073536;28;20508;-84
2022/05/12 11:29:44;;;;;;;4.43;4.13;;;24.70;81.10;;;;;;5084783;28;20445;-83
2022/05/12 11:35:26;;;;;;;4.93;4.43;;;24.70;81.70;;;;;;5085457;28;20535;-84
2022/05/12 11:37:56;;;;;;;5.37;4.97;;;24.60;80.00;;;;;;5085207;28;20599;-84
2022/05/12 11:40:50;;;;;;;4.83;4.47;;;24.40;80.70;;;;;;5084380;28;20457;-84
2022/05/12 11:46:41;;;;;;;4.10;3.90;;;24.50;81.00;;;;;;5084848;28;20439;-84
2022/05/12 11:49:18;;;;;;;4.97;4.63;;;24.50;81.20;;;;;;5085637;28;20454;-84
2022/05/12 11:51:55;;;;;;;5.47;5.03;;;24.20;81.80;;;;;;5085090;28;20478;-85
2022/05/12 11:54:27;;;;;;;4.80;4.50;;;24.30;82.00;;;;;;5086222;28;20447;-84
2022/05/12 11:56:56;;;;;;;6.07;4.33;;;24.50;82.30;;;;;;5085037;28;20520;-84
2022/05/12 11:59:45;;;;;;;4.60;4.13;;;24.60;81.90;;;;;;5083995;28;20486;-84
2022/05/12 12:02:38;;;;;;;4.60;3.67;;;24.90;81.60;;;;;;5083965;28;20477;-84
2022/05/12 12:05:06;;;;;;;4.80;4.40;;;25.40;81.60;;;;;;5087212;28;20429;-85
2022/05/12 12:08:07;;;;;;;5.27;4.77;;;26.00;81.40;;;;;;5086200;28;20449;-85
2022/05/12 12:10:36;;;;;;;3.73;3.53;;;26.70;76.60;;;;;;5071886;28;20481;-85
2022/05/12 12:13:07;;;;;;;4.87;4.47;;;27.00;75.60;;;;;;5084404;28;20449;-85
2022/05/12 12:16:04;;;;;;;5.20;4.80;;;27.50;73.20;;;;;;5083674;28;20833;-85
2022/05/12 12:19:39;;;;;;;5.00;4.60;;;27.60;72.90;;;;;;5082606;28;20570;-84
2022/05/12 12:29:45;;;;;;;5.10;4.80;;;27.80;68.80;;;;;;5098087;28;20511;-85
2022/05/12 12:32:37;;;;;;;5.13;4.60;;;27.90;67.80;;;;;;5101117;28;20464;-85
2022/05/12 12:35:14;;;;;;;5.27;4.87;;;28.00;68.70;;;;;;5062849;28;20505;-85
2022/05/12 12:37:45;;;;;;;6.70;5.20;;;27.30;68.00;;;;;;5067139;28;20458;-85
2022/05/12 12:40:43;;;;;;;5.20;4.80;;;27.40;67.90;;;;;;5081107;28;20476;-84
2022/05/12 12:43:20;;;;;;;6.20;5.70;;;27.70;69.70;;;;;;5081805;28;20445;-85
2022/05/12 12:45:50;;;;;;;5.97;5.57;;;27.60;69.90;;;;;;5083411;28;20531;-85
2022/05/12 12:48:21;;;;;;;5.10;4.80;;;27.60;66.20;;;;;;5076651;28;20478;-85
2022/05/12 12:50:51;;;;;;;4.73;4.43;;;27.80;63.00;;;;;;5071538;28;20516;-85
2022/05/12 12:56:35;;;;;;;5.10;4.80;;;27.50;62.80;;;;;;5063809;28;20417;-84
2022/05/12 12:59:06;;;;;;;5.03;4.37;;;27.10;63.30;;;;;;5066031;28;20488;-83
2022/05/12 13:01:45;;;;;;;5.50;4.80;;;27.00;64.20;;;;;;5061018;28;20473;-83
2022/05/12 13:04:14;;;;;;;5.90;5.20;;;26.70;63.30;;;;;;5062685;28;20549;-83
2022/05/12 13:06:41;;;;;;;5.20;4.80;;;26.40;64.10;;;;;;5066533;28;20517;-83
2022/05/12 13:09:10;;;;;;;6.37;5.77;;;26.50;65.50;;;;;;5082298;28;20452;-82
2022/05/12 13:11:38;;;;;;;6.33;5.57;;;26.20;67.90;;;;;;5078482;28;20468;-83
2022/05/12 13:14:06;;;;;;;4.63;4.33;;;26.00;67.00;;;;;;5073132;28;20548;-83
2022/05/12 13:16:37;;;;;;;5.17;4.87;;;25.90;67.80;;;;;;5061777;28;20459;-84
2022/05/12 13:19:07;;;;;;;4.40;4.10;;;25.90;68.20;;;;;;5081576;28;20565;-84
2022/05/12 13:21:38;;;;;;;5.20;4.70;;;25.80;68.00;;;;;;5084758;28;20478;-82
2022/05/12 13:24:11;;;;;;;5.80;5.40;;;25.40;67.10;;;;;;5081515;28;20542;-82
2022/05/12 13:26:40;;;;;;;6.40;5.80;;;25.30;67.70;;;;;;5061076;28;20945;-82
2022/05/12 13:29:09;;;;;;;4.77;4.40;;;25.10;71.90;;;;;;5060563;28;20465;-82
2022/05/12 13:31:38;;;;;;;5.20;4.80;;;25.10;74.10;;;;;;5079882;28;20474;-82
2022/05/12 13:34:20;;;;;;;5.60;4.20;;;25.10;76.60;;;;;;5079602;28;20815;-82
2022/05/12 13:36:53;;;;;;;4.80;4.40;;;25.10;75.60;;;;;;5067460;28;20452;-82
2022/05/12 13:39:48;;;;;;;5.57;5.17;;;25.50;74.80;;;;;;5070196;28;20494;-82
2022/05/12 13:42:21;;;;;;;5.10;4.50;;;25.20;67.80;;;;;;5070245;28;20498;-82
2022/05/12 13:44:57;;;;;;;5.13;4.63;;;24.90;69.40;;;;;;5069875;28;20457;-81
2022/05/12 13:47:32;;;;;;;5.17;4.67;;;24.90;68.30;;;;;;5085367;28;20454;-83
2022/05/12 13:50:02;;;;;;;5.30;4.73;;;24.50;67.10;;;;;;5090806;28;20455;-83
2022/05/12 13:52:41;;;;;;;4.60;4.30;;;24.40;67.10;;;;;;5067995;28;20465;-82
2022/05/12 13:55:16;;;;;;;5.30;4.80;;;24.40;68.10;;;;;;5065407;28;20449;-82
2022/05/12 13:57:45;;;;;;;4.40;4.10;;;24.60;73.30;;;;;;5065912;28;20441;-80
2022/05/12 14:00:24;;;;;;;5.00;4.53;;;24.60;77.80;;;;;;5088423;28;20488;-81
2022/05/12 14:02:55;;;;;;;4.97;4.60;;;24.70;78.90;;;;;;5088229;28;20443;-86
2022/05/12 14:05:26;;;;;;;4.27;3.90;;;24.70;79.30;;;;;;5064797;28;20459;-85
2022/05/12 14:08:06;;;;;;;5.63;4.83;;;24.80;78.90;;;;;;5065845;28;20489;-84
2022/05/12 14:10:36;;;;;;;4.93;4.43;;;24.80;79.20;;;;;;5085105;28;20477;-84
2022/05/12 14:21:25;;;;;;;4.33;3.80;;;24.60;81.40;;;;;;5057770;28;20989;-83
2022/05/12 14:23:52;;;;;;;5.50;4.33;;;24.60;81.10;;;;;;5071385;28;20823;-83
2022/05/12 14:26:19;;;;;;;4.37;4.07;;;24.60;80.80;;;;;;5077248;28;20456;-84
2022/05/12 14:28:46;;;;;;;4.13;3.73;;;24.60;80.80;;;;;;5059673;28;20458;-85
2022/05/12 14:31:13;;;;;;;3.40;3.20;;;24.70;81.80;;;;;;5056241;28;20905;-83
2022/05/12 14:33:40;;;;;;;4.33;4.00;;;24.70;82.40;;;;;;5056949;28;20453;-83
2022/05/12 14:36:07;;;;;;;3.90;3.60;;;24.60;81.60;;;;;;5056648;28;20461;-84
2022/05/12 14:38:35;;;;;;;4.20;3.90;;;24.50;82.10;;;;;;5075709;28;20507;-83
2022/05/12 14:41:02;;;;;;;4.40;4.00;;;24.60;82.30;;;;;;5070254;28;20475;-83
2022/05/12 14:43:28;;;;;;;3.80;3.57;;;24.40;82.50;;;;;;5069765;28;20443;-82
2022/05/12 14:45:55;;;;;;;4.70;4.27;;;24.50;84.00;;;;;;5079997;28;20457;-83
2022/05/12 14:48:22;;;;;;;3.53;3.23;;;24.70;82.60;;;;;;5087735;28;20449;-83
2022/05/12 14:50:49;;;;;;;4.83;4.40;;;24.80;81.60;;;;;;5070434;28;20483;-83
2022/05/12 14:53:16;;;;;;;7.13;5.73;;;24.80;82.80;;;;;;5070479;28;20488;-83
2022/05/12 14:55:44;;;;;;;3.93;3.60;;;24.80;83.60;;;;;;5068955;28;20521;-82
2022/05/12 14:58:11;;;;;;;3.83;3.43;;;24.90;83.00;;;;;;5071333;28;20462;-83
2022/05/12 15:00:40;;;;;;;3.93;3.50;;;25.00;81.80;;;;;;5088168;28;20465;-83
2022/05/12 15:03:09;;;;;;;4.37;3.97;;;25.10;81.80;;;;;;5083976;28;20452;-83
2022/05/12 15:05:36;;;;;;;4.33;3.93;;;25.20;82.60;;;;;;5092100;28;20631;-83
2022/05/12 15:08:04;;;;;;;3.90;3.60;;;25.40;81.20;;;;;;5084226;28;20441;-83
2022/05/12 15:10:31;;;;;;;4.47;3.93;;;25.50;80.50;;;;;;5092398;28;20469;-83
2022/05/12 15:12:59;;;;;;;4.63;4.17;;;25.50;80.50;;;;;;5074280;28;20471;-83
2022/05/12 15:15:32;;;;;;;4.83;4.37;;;25.30;79.60;;;;;;5073454;28;20446;-83
2022/05/12 15:17:59;;;;;;;4.57;3.53;;;25.30;80.70;;;;;;5092823;28;20453;-83
2022/05/12 15:20:27;;;;;;;3.90;3.50;;;25.40;81.30;;;;;;5078729;28;20482;-83
2022/05/12 15:22:53;;;;;;;5.10;4.60;;;25.10;80.60;;;;;;5073989;28;20438;-83
2022/05/12 15:25:20;;;;;;;4.50;4.10;;;24.80;81.00;;;;;;5086515;28;20455;-83
2022/05/12 15:27:50;;;;;;;5.23;4.57;;;24.90;83.50;;;;;;5092241;28;20454;-83
2022/05/12 15:30:21;;;;;;;4.77;4.27;;;24.80;82.40;;;;;;5084644;28;20452;-85
2022/05/12 15:32:47;;;;;;;9.70;4.37;;;24.70;83.00;;;;;;5063787;28;20463;-84
2022/05/12 15:35:16;;;;;;;5.43;4.93;;;24.50;83.30;;;;;;5071578;28;20451;-83
2022/05/12 15:37:43;;;;;;;5.13;4.63;;;24.40;84.30;;;;;;5074289;28;20453;-84
2022/05/12 15:40:13;;;;;;;3.90;3.67;;;24.30;84.50;;;;;;5059850;28;21017;-83
2022/05/12 15:42:41;;;;;;;6.60;4.10;;;24.20;85.00;;;;;;5064377;28;20440;-83
2022/05/12 15:45:09;;;;;;;6.20;4.33;;;24.10;84.40;;;;;;5066692;28;20487;-81
2022/05/12 15:47:42;;;;;;;4.47;4.07;;;24.00;84.60;;;;;;5071644;28;20455;-83
2022/05/12 15:50:13;;;;;;;4.60;4.20;;;23.90;84.60;;;;;;5062321;28;20484;-84
2022/05/12 15:52:39;;;;;;;4.97;4.00;;;23.90;85.10;;;;;;5065548;28;20475;-83
2022/05/12 15:55:07;;;;;;;4.90;4.60;;;23.90;85.20;;;;;;5085273;28;20520;-83
2022/05/12 15:57:34;;;;;;;4.30;4.00;;;23.70;85.20;;;;;;5080953;28;20516;-83
2022/05/12 16:00:01;;;;;;;7.60;5.60;;;23.50;86.20;;;;;;5065582;28;20492;-83
2022/05/12 16:02:28;;;;;;;4.73;4.37;;;23.50;86.60;;;;;;5064411;28;20474;-83
2022/05/12 16:04:56;;;;;;;4.77;4.37;;;23.30;88.30;;;;;;5068144;28;20687;-84
2022/05/12 16:07:23;;;;;;;5.27;4.33;;;23.30;90.30;;;;;;5077173;28;20432;-84
2022/05/12 16:09:50;;;;;;;5.27;4.60;;;23.00;90.30;;;;;;5058501;28;20448;-84
2022/05/12 16:12:26;;;;;;;4.03;3.63;;;22.70;90.90;;;;;;5065818;28;20842;-83
2022/05/12 16:14:55;;;;;;;5.00;4.60;;;22.40;91.00;;;;;;5057225;28;20527;-84
2022/05/12 16:17:22;;;;;;;3.87;3.57;;;22.30;91.10;;;;;;5056953;28;20441;-83
2022/05/12 16:19:49;;;;;;;5.30;4.33;;;22.00;91.30;;;;;;5066774;28;20490;-83
2022/05/12 16:22:18;;;;;;;5.90;3.80;;;21.70;91.90;;;;;;5065357;28;20480;-84
2022/05/12 16:24:45;;;;;;;7.57;4.50;;;21.50;92.40;;;;;;5065581;28;20930;-83
2022/05/12 16:27:15;;;;;;;4.67;4.13;;;21.30;92.70;;;;;;5068270;28;20834;-84
2022/05/12 16:29:50;;;;;;;6.70;5.63;;;21.10;94.70;;;;;;5067360;28;20540;-84
2022/05/12 16:32:19;;;;;;;5.67;5.00;;;20.60;97.30;;;;;;5065208;28;20499;-81
2022/05/12 16:34:59;;;;;;;5.80;5.30;;;19.90;99.90;;;;;;5060975;28;20452;-84
2022/05/12 16:37:28;;;;;;;5.40;4.90;;;19.50;99.90;;;;;;5061979;28;20451;-83
2022/05/12 16:39:54;;;;;;;6.80;5.10;;;18.60;99.90;;;;;;5077141;28;20987;-85
2022/05/12 16:42:24;;;;;;;6.17;5.70;;;17.90;99.90;;;;;;5080930;28;20474;-85
2022/05/12 16:44:52;;;;;;;7.90;7.23;;;17.50;99.90;;;;;;5070448;28;20458;-85
2022/05/12 16:47:18;;;;;;;5.80;5.07;;;17.10;99.90;;;;;;5077489;28;20463;-85
2022/05/12 16:49:46;;;;;;;7.23;6.60;;;16.80;99.90;;;;;;5077750;28;20452;-84
2022/05/12 16:52:13;;;;;;;8.17;6.43;;;16.60;99.90;;;;;;5070282;28;20485;-84
2022/05/12 16:54:43;;;;;;;7.17;6.27;;;16.50;99.90;;;;;;5068386;28;20459;-87
2022/05/12 16:57:17;;;;;;;7.53;6.87;;;16.30;99.90;;;;;;5073738;28;20453;-89
2022/05/12 16:59:47;;;;;;;6.20;5.70;;;16.20;99.90;;;;;;5075785;28;20915;-86
2022/05/12 17:02:14;;;;;;;7.77;7.07;;;16.30;99.90;;;;;;5064462;28;20481;-85
2022/05/12 17:04:42;;;;;;;8.70;7.80;;;16.30;99.90;;;;;;5077089;28;20440;-84
2022/05/12 17:07:08;;;;;;;10.23;9.27;;;16.40;99.90;;;;;;5078092;28;20448;-84
2022/05/12 17:09:37;;;;;;;11.90;8.97;;;16.40;99.90;;;;;;5079141;28;20460;-85
2022/05/12 17:12:06;;;;;;;8.60;7.93;;;16.60;99.90;;;;;;5059888;28;20988;-86
2022/05/12 17:14:34;;;;;;;12.60;8.83;;;16.70;99.90;;;;;;5060086;28;20457;-85
2022/05/12 17:17:01;;;;;;;10.87;9.77;;;16.60;99.90;;;;;;5079203;28;20448;-85
2022/05/12 17:19:29;;;;;;;10.33;9.40;;;16.60;99.90;;;;;;5066839;28;20485;-85
2022/05/12 17:21:56;;;;;;;11.03;9.87;;;16.60;99.90;;;;;;5069029;28;20506;-86
2022/05/12 17:24:23;;;;;;;10.50;9.50;;;16.70;99.90;;;;;;5070616;28;20815;-86
2022/05/12 17:26:50;;;;;;;11.67;10.67;;;16.90;99.90;;;;;;5066586;28;20449;-85
2022/05/12 17:29:18;;;;;;;12.00;10.90;;;17.10;99.90;;;;;;5060116;28;20539;-86
2022/05/12 17:31:45;;;;;;;12.17;10.80;;;17.30;99.90;;;;;;5073795;28;20497;-84
2022/05/12 17:34:12;;;;;;;11.43;10.33;;;17.50;99.90;;;;;;5070860;28;20461;-84
2022/05/12 17:36:39;;;;;;;13.10;11.73;;;17.60;99.90;;;;;;5074737;28;21163;-83
2022/05/12 17:39:06;;;;;;;12.33;11.03;;;17.70;99.90;;;;;;5061649;28;20476;-84
2022/05/12 17:41:33;;;;;;;12.60;11.50;;;17.80;99.90;;;;;;5076366;28;20466;-84
2022/05/12 17:44:04;;;;;;;12.80;11.60;;;18.00;99.90;;;;;;5058560;28;20474;-84
2022/05/12 17:46:32;;;;;;;12.80;11.70;;;18.10;99.90;;;;;;5058879;28;20456;-83
2022/05/12 17:49:00;;;;;;;12.10;11.00;;;18.20;99.90;;;;;;5078865;28;20530;-84
2022/05/12 17:51:28;;;;;;;12.10;10.43;;;18.20;99.90;;;;;;5071999;28;20467;-85
2022/05/12 17:53:55;;;;;;;12.27;11.27;;;18.00;99.90;;;;;;5058532;28;20470;-84
2022/05/12 17:56:22;;;;;;;12.53;11.33;;;17.80;99.90;;;;;;5072201;28;20481;-85
2022/05/12 17:58:48;;;;;;;12.50;11.27;;;17.80;99.90;;;;;;5080297;28;20461;-84
2022/05/12 18:01:15;;;;;;;12.97;11.90;;;18.00;99.90;;;;;;5071292;28;20490;-85
2022/05/12 18:03:45;;;;;;;18.60;16.80;;;18.20;99.90;;;;;;5057517;28;20456;-85
2022/05/12 18:06:12;;;;;;;17.00;15.20;;;18.20;99.90;;;;;;5058627;28;20487;-86
2022/05/12 18:08:39;;;;;;;15.33;14.00;;;18.40;99.90;;;;;;5076460;28;20458;-87
2022/05/12 18:11:06;;;;;;;15.50;14.10;;;18.40;99.90;;;;;;5078638;28;20470;-86
2022/05/12 18:13:32;;;;;;;15.57;14.00;;;18.40;99.90;;;;;;5079894;28;20456;-86
2022/05/12 18:15:59;;;;;;;12.77;11.43;;;18.40;99.90;;;;;;5079481;28;20462;-87
2022/05/12 18:18:26;;;;;;;13.60;12.30;;;18.40;99.90;;;;;;5079250;28;20466;-86
2022/05/12 18:20:54;;;;;;;13.63;12.40;;;18.40;99.90;;;;;;5079205;28;20867;-86
2022/05/12 18:23:21;;;;;;;12.60;11.40;;;18.50;99.90;;;;;;5079595;28;20447;-85
2022/05/12 18:25:48;;;;;;;15.20;13.80;;;18.50;99.90;;;;;;5077282;28;20967;-86
2022/05/12 18:28:18;;;;;;;12.47;11.23;;;18.50;99.90;;;;;;5078879;28;20949;-85
2022/05/12 18:30:45;;;;;;;14.00;12.70;;;18.50;99.90;;;;;;5065453;28;20529;-85
2022/05/12 18:33:22;;;;;;;15.23;13.57;;;18.50;99.90;;;;;;5065510;28;20818;-85
2022/05/12 18:35:49;;;;;;;12.50;11.40;;;18.40;99.90;;;;;;5057328;28;21003;-85
2022/05/12 18:38:23;;;;;;;13.00;11.70;;;18.40;99.90;;;;;;5068115;28;20456;-85
2022/05/12 18:40:57;;;;;;;13.50;12.17;;;18.40;99.90;;;;;;5063369;28;20480;-84
2022/05/12 18:43:25;;;;;;;13.23;11.93;;;18.40;99.90;;;;;;5064884;28;20833;-85
2022/05/12 18:45:57;;;;;;;12.97;11.70;;;18.40;99.90;;;;;;5063176;28;20445;-85
2022/05/12 18:48:24;;;;;;;12.73;11.57;;;18.20;99.90;;;;;;5063699;28;20477;-85
2022/05/12 18:50:55;;;;;;;14.87;13.30;;;18.20;99.90;;;;;;5064968;28;20535;-85
2022/05/12 18:53:23;;;;;;;13.00;11.80;;;18.10;99.90;;;;;;5068298;28;20471;-86
2022/05/12 18:55:52;;;;;;;11.30;10.30;;;18.00;99.90;;;;;;5071507;28;20465;-85
2022/05/12 18:58:19;;;;;;;12.30;11.00;;;17.90;99.90;;;;;;5069272;28;20451;-84